createdAt,value
2022-07-26T00:02:55.147Z,21.67
2022-07-26T00:08:17.394Z,21.67
2022-07-26T00:13:37.852Z,21.70
2022-07-26T00:18:47.790Z,21.73
2022-07-26T00:24:01.209Z,21.75
2022-07-26T00:29:12.270Z,21.78
2022-07-26T00:34:27.874Z,21.80
2022-07-26T00:39:36.049Z,21.80
2022-07-26T00:44:45.826Z,21.80
2022-07-26T00:50:04.960Z,21.83
2022-07-26T00:55:23.498Z,21.85
2022-07-26T01:00:31.701Z,21.87
2022-07-26T01:05:44.080Z,21.86
2022-07-26T01:11:05.061Z,21.83
2022-07-26T01:16:21.696Z,21.80
2022-07-26T01:21:34.496Z,21.80
2022-07-26T01:26:48.473Z,21.79
2022-07-26T01:32:05.197Z,21.77
2022-07-26T01:37:21.315Z,21.75
2022-07-26T01:42:33.273Z,21.74
2022-07-26T01:47:45.409Z,21.72
2022-07-26T01:53:06.223Z,21.70
2022-07-26T01:58:29.548Z,21.71
2022-07-26T02:03:48.921Z,21.69
2022-07-26T02:08:57.020Z,21.69
2022-07-26T02:14:06.639Z,21.66
2022-07-26T02:19:19.632Z,21.61
2022-07-26T02:24:31.675Z,21.55
2022-07-26T02:29:44.759Z,21.49
2022-07-26T02:34:52.128Z,21.43
2022-07-26T02:39:57.937Z,21.34
2022-07-26T02:45:05.719Z,21.22
2022-07-26T02:50:17.264Z,21.10
2022-07-26T02:55:26.789Z,20.98
2022-07-26T03:00:46.771Z,20.89
2022-07-26T03:05:54.405Z,20.83
2022-07-26T03:11:03.162Z,20.77
2022-07-26T03:16:12.264Z,20.74
2022-07-26T03:21:32.054Z,20.70
2022-07-26T03:26:42.141Z,20.65
2022-07-26T03:31:50.402Z,20.62
2022-07-26T03:36:58.083Z,20.60
2022-07-26T03:42:07.945Z,20.52
2022-07-26T03:47:15.865Z,20.46
2022-07-26T03:52:23.367Z,20.44
2022-07-26T03:57:38.580Z,20.42
2022-07-26T04:02:49.359Z,20.43
2022-07-26T04:07:57.310Z,20.46
2022-07-26T04:13:07.673Z,20.53
2022-07-26T04:18:18.002Z,20.63
2022-07-26T04:23:25.438Z,20.76
2022-07-26T04:28:33.743Z,20.86
2022-07-26T04:33:52.128Z,20.93
2022-07-26T04:39:01.723Z,20.96
2022-07-26T04:44:10.183Z,20.85
2022-07-26T04:49:18.109Z,20.78
2022-07-26T04:54:34.951Z,20.68
2022-07-26T04:59:42.536Z,20.62
2022-07-26T05:05:00.330Z,20.56
2022-07-26T05:10:12.091Z,20.58
2022-07-26T05:15:20.950Z,20.59
2022-07-26T05:20:29.110Z,20.64
2022-07-26T05:25:52.548Z,20.70
2022-07-26T05:31:04.850Z,20.66
2022-07-26T05:36:33.226Z,20.55
2022-07-26T05:42:01.332Z,20.45
2022-07-26T05:47:28.288Z,20.51
2022-07-26T05:52:36.977Z,20.57
2022-07-26T05:57:49.819Z,20.54
2022-07-26T06:03:24.616Z,20.57
2022-07-26T06:08:55.896Z,20.60
2022-07-26T06:14:04.040Z,20.67
2022-07-26T06:19:17.165Z,20.71
2022-07-26T06:24:25.065Z,20.74
2022-07-26T06:29:35.699Z,20.70
2022-07-26T06:34:43.388Z,20.61
2022-07-26T06:39:53.828Z,20.56
2022-07-26T06:45:02.700Z,20.47
2022-07-26T06:50:13.716Z,20.33
2022-07-26T06:55:21.493Z,20.16
2022-07-26T07:00:29.226Z,20.00
2022-07-26T07:05:50.394Z,19.90
2022-07-26T07:11:07.893Z,19.79
2022-07-26T07:16:20.782Z,19.56
2022-07-26T07:21:28.887Z,19.34
2022-07-26T07:26:40.581Z,19.21
2022-07-26T07:32:09.015Z,19.11
2022-07-26T07:37:52.755Z,19.08
2022-07-26T07:43:14.741Z,19.04
2022-07-26T07:48:47.237Z,18.98
2022-07-26T07:54:16.185Z,18.98
2022-07-26T07:59:23.957Z,19.06
2022-07-26T08:04:31.603Z,19.17
2022-07-26T08:09:48.614Z,19.33
2022-07-26T08:14:56.222Z,19.52
2022-07-26T08:20:03.804Z,19.61
2022-07-26T08:25:13.488Z,19.74
2022-07-26T08:30:24.451Z,19.90
2022-07-26T08:35:32.161Z,20.10
2022-07-26T08:40:39.997Z,20.32
2022-07-26T08:46:08.034Z,20.56
2022-07-26T08:51:26.638Z,20.81
2022-07-26T08:56:35.195Z,21.08
2022-07-26T09:01:57.116Z,21.30
2022-07-26T09:07:07.853Z,21.48
2022-07-26T09:12:23.768Z,21.60
2022-07-26T09:17:44.224Z,21.77
2022-07-26T09:23:06.304Z,21.96
2022-07-26T09:28:27.062Z,22.17
2022-07-26T09:33:55.693Z,22.35
2022-07-26T09:39:07.544Z,22.62
2022-07-26T09:44:28.117Z,22.82
2022-07-26T09:49:47.148Z,22.79
2022-07-26T09:55:05.578Z,22.78
2022-07-26T10:00:25.982Z,22.79
2022-07-26T10:05:42.305Z,22.78
2022-07-26T10:10:56.072Z,22.79
2022-07-26T10:16:06.136Z,22.86
2022-07-26T10:21:30.194Z,23.02
2022-07-26T10:27:51.023Z,23.17
2022-07-26T10:33:08.207Z,23.39
2022-07-26T10:38:29.738Z,23.44
2022-07-26T10:43:41.233Z,23.39
2022-07-26T10:49:05.422Z,23.43
2022-07-26T10:54:15.419Z,23.50
2022-07-26T10:59:57.732Z,23.60
2022-07-26T11:05:14.465Z,23.77
2022-07-26T11:10:44.784Z,23.80
2022-07-26T11:16:03.508Z,23.93
2022-07-26T11:21:25.301Z,24.19
2022-07-26T11:26:35.290Z,24.40
2022-07-26T11:31:51.440Z,24.49
2022-07-26T11:37:10.085Z,24.48
2022-07-26T11:42:22.028Z,24.35
2022-07-26T11:47:29.635Z,24.30
2022-07-26T11:52:48.427Z,24.29
2022-07-26T11:58:05.272Z,24.14
2022-07-26T12:03:15.862Z,24.01
2022-07-26T12:08:27.105Z,24.02
2022-07-26T12:13:55.130Z,23.98
2022-07-26T12:19:06.139Z,23.92
2022-07-26T12:24:38.389Z,23.91
2022-07-26T12:29:51.306Z,23.91
2022-07-26T12:35:01.109Z,23.84
2022-07-26T12:40:12.604Z,23.71
2022-07-26T12:45:31.391Z,23.57
2022-07-26T12:50:45.118Z,23.52
2022-07-26T12:56:00.199Z,23.63
2022-07-26T13:01:08.776Z,23.80
2022-07-26T13:06:16.409Z,24.00
2022-07-26T13:11:29.808Z,24.14
2022-07-26T13:16:54.115Z,24.15
2022-07-26T13:22:05.954Z,24.19
2022-07-26T13:27:14.509Z,24.19
2022-07-26T13:32:25.043Z,24.14
2022-07-26T13:37:35.450Z,24.13
2022-07-26T13:42:57.620Z,24.06
2022-07-26T13:48:07.139Z,24.01
2022-07-26T13:53:20.171Z,24.12
2022-07-26T13:58:28.237Z,24.31
2022-07-26T14:03:44.926Z,24.54
2022-07-26T14:09:12.520Z,24.72
2022-07-26T14:14:23.710Z,24.87
2022-07-26T14:19:39.230Z,25.09
2022-07-26T14:24:49.814Z,25.27
2022-07-26T14:29:57.458Z,25.37
2022-07-26T14:35:06.539Z,25.29
2022-07-26T14:40:16.684Z,25.21
2022-07-26T14:45:24.808Z,25.12
2022-07-26T14:50:42.551Z,25.09
2022-07-26T14:55:59.944Z,25.05
2022-07-26T15:01:09.867Z,24.95
2022-07-26T15:06:18.050Z,24.93
2022-07-26T15:11:26.240Z,24.92
2022-07-26T15:16:37.171Z,24.94
2022-07-26T15:21:47.461Z,24.99
2022-07-26T15:26:55.798Z,25.00
2022-07-26T15:32:03.478Z,24.94
2022-07-26T15:37:14.034Z,24.89
2022-07-26T15:42:23.348Z,24.92
2022-07-26T15:48:11.001Z,24.94
2022-07-26T15:53:17.758Z,24.89
2022-07-26T15:58:27.507Z,24.84
2022-07-26T16:03:37.268Z,24.79
2022-07-26T16:09:13.442Z,24.78
2022-07-26T16:14:13.581Z,24.81
2022-07-26T16:19:22.936Z,24.83
2022-07-26T16:24:34.044Z,24.85
2022-07-26T16:29:41.812Z,24.85
2022-07-26T16:34:49.464Z,24.79
2022-07-26T16:39:57.341Z,24.70
2022-07-26T16:45:05.934Z,24.65
2022-07-26T16:50:27.039Z,24.53
2022-07-26T16:55:35.862Z,24.36
2022-07-26T17:00:43.850Z,24.22
2022-07-26T17:05:51.342Z,24.12
2022-07-26T17:10:59.390Z,23.96
2022-07-26T17:16:07.302Z,23.76
2022-07-26T17:21:15.078Z,23.57
2022-07-26T17:26:23.264Z,23.42
2022-07-26T17:31:30.966Z,23.27
2022-07-26T17:36:38.777Z,22.87
2022-07-26T17:41:49.791Z,22.43
2022-07-26T17:46:58.891Z,22.07
2022-07-26T17:52:06.980Z,21.77
2022-07-26T17:57:19.602Z,21.48
2022-07-26T18:02:27.333Z,21.26
2022-07-26T18:07:35.149Z,21.09
2022-07-26T18:12:47.680Z,21.00
2022-07-26T18:17:57.600Z,20.91
2022-07-26T18:23:05.054Z,20.81
2022-07-26T18:28:32.438Z,20.70
2022-07-26T18:33:42.456Z,20.57
2022-07-26T18:38:52.773Z,20.43
2022-07-26T18:44:13.380Z,20.24
2022-07-26T18:49:23.410Z,20.11
2022-07-26T18:54:37.065Z,20.01
2022-07-26T18:59:48.192Z,19.93
2022-07-26T19:05:08.304Z,19.83
2022-07-26T19:10:22.878Z,19.73
2022-07-26T19:15:32.620Z,19.71
2022-07-26T19:20:49.712Z,19.70
2022-07-26T19:25:57.049Z,19.67
2022-07-26T19:31:15.558Z,19.62
2022-07-26T19:36:33.518Z,19.59
2022-07-26T19:41:41.313Z,19.52
2022-07-26T19:46:52.001Z,19.44
2022-07-26T19:52:11.367Z,19.40
2022-07-26T19:57:20.290Z,19.33
2022-07-26T20:02:37.606Z,19.28
2022-07-26T20:07:43.619Z,19.21
2022-07-26T20:12:51.190Z,19.14
2022-07-26T20:18:04.527Z,19.00
2022-07-26T20:23:12.112Z,18.87
2022-07-26T20:28:27.411Z,18.72
2022-07-26T20:33:39.351Z,18.62
2022-07-26T20:38:51.747Z,18.58
2022-07-26T20:43:59.427Z,18.48
2022-07-26T20:49:07.666Z,18.37
2022-07-26T20:54:18.659Z,18.27
2022-07-26T20:59:26.619Z,18.17
2022-07-26T21:04:34.042Z,18.10
2022-07-26T21:09:41.863Z,17.99
2022-07-26T21:14:52.438Z,17.90
2022-07-26T21:20:01.639Z,17.79
2022-07-26T21:25:21.871Z,17.71
2022-07-26T21:30:50.091Z,17.64
2022-07-26T21:36:04.769Z,17.58
2022-07-26T21:41:13.697Z,17.49
2022-07-26T21:46:34.990Z,17.38
2022-07-26T21:51:48.670Z,17.35
2022-07-26T21:57:02.569Z,17.33
2022-07-26T22:02:19.967Z,17.29
2022-07-26T22:07:30.079Z,17.25
2022-07-26T22:12:40.512Z,17.17
2022-07-26T22:18:02.935Z,17.02
2022-07-26T22:23:25.701Z,16.90
2022-07-26T22:29:02.435Z,16.79
2022-07-26T22:34:24.493Z,16.68
2022-07-26T22:39:44.422Z,16.55
2022-07-26T22:45:20.318Z,16.38
2022-07-26T22:50:52.553Z,16.23
2022-07-26T22:56:11.947Z,16.08
2022-07-26T23:02:41.580Z,15.91
2022-07-26T23:08:47.452Z,15.75
2022-07-26T23:14:20.661Z,15.58
2022-07-26T23:19:33.618Z,15.36
2022-07-26T23:24:53.038Z,15.14
2022-07-26T23:30:07.566Z,14.95
2022-07-26T23:35:15.911Z,14.81
2022-07-26T23:40:34.913Z,14.69
2022-07-26T23:46:12.208Z,14.58
2022-07-26T23:51:33.143Z,14.39
2022-07-26T23:56:46.005Z,14.21
